Terminal Aerodrome Forecast
Issued by NWS Chicago, IL

Home | Current Version | Previous Version | Graphics & Text | Print | Product List | Glossary On
Versions: 1 2 3 4 5 6 7 8 9 10 11 12 13 14 15 16 17 18 19 20 21 22 23 24 25 26 27
000
FTUS43 KLOT 212325
TAFRFD
TAF
KRFD 212325Z 2200/2224 20009KT P6SM SCT030 BKN150
     FM220400 23009KT P6SM VCTS OVC035CB
      TEMPO 2205/2209 1SM TSRA OVC015CB
     FM220900 25008KT 6SM -SHRA BR OVC020
     FM221300 29011KT P6SM BKN015
     FM221600 34014G20KT P6SM SCT035=

USA.gov is the U.S. government's official web portal to all federal, state and local government web resources and services.